sensor_id;sensor_type;location;lat;lon;timestamp;temperature;humidity
6355;DHT22;3210;48.708;9.030;2022-09-09T10:43:00;20.40;99.90
6355;DHT22;3210;48.708;9.030;2022-09-09T10:45:40;20.30;1.00
6355;DHT22;3210;48.708;9.030;2022-09-09T10:48:19;20.60;1.00
6355;DHT22;3210;48.708;9.030;2022-09-09T10:50:55;20.70;1.00
6355;DHT22;3210;48.708;9.030;2022-09-09T10:53:33;20.80;1.00
6355;DHT22;3210;48.708;9.030;2022-09-09T10:56:06;21.20;1.00
6355;DHT22;3210;48.708;9.030;2022-09-09T10:58:38;21.40;99.90
6355;DHT22;3210;48.708;9.030;2022-09-09T11:01:14;21.60;99.90
6355;DHT22;3210;48.708;9.030;2022-09-09T11:03:43;21.70;99.90
6355;DHT22;3210;48.708;9.030;2022-09-09T11:06:14;21.60;99.90
6355;DHT22;3210;48.708;9.030;2022-09-09T11:08:44;21.40;99.90
6355;DHT22;3210;48.708;9.030;2022-09-09T11:11:16;21.20;99.90
6355;DHT22;3210;48.708;9.030;2022-09-09T11:13:49;21.00;99.90
6355;DHT22;3210;48.708;9.030;2022-09-09T11:16:25;20.60;99.90
6355;DHT22;3210;48.708;9.030;2022-09-09T11:19:03;20.20;99.90
6355;DHT22;3210;48.708;9.030;2022-09-09T11:21:34;19.80;99.90
6355;DHT22;3210;48.708;9.030;2022-09-09T11:24:04;19.40;99.90
6355;DHT22;3210;48.708;9.030;2022-09-09T11:26:39;19.00;99.90
6355;DHT22;3210;48.708;9.030;2022-09-09T11:29:36;18.50;1.00
6355;DHT22;3210;48.708;9.030;2022-09-09T11:32:15;18.30;99.90
6355;DHT22;3210;48.708;9.030;2022-09-09T11:34:53;18.30;37.20
6355;DHT22;3210;48.708;9.030;2022-09-09T11:37:48;18.10;99.90
6355;DHT22;3210;48.708;9.030;2022-09-09T11:40:23;17.90;99.90
6355;DHT22;3210;48.708;9.030;2022-09-09T11:43:02;17.90;99.90
6355;DHT22;3210;48.708;9.030;2022-09-09T11:45:33;18.10;99.90
6355;DHT22;3210;48.708;9.030;2022-09-09T11:48:02;18.00;99.90
6355;DHT22;3210;48.708;9.030;2022-09-09T11:50:34;18.10;1.00
6355;DHT22;3210;48.708;9.030;2022-09-09T11:53:19;18.20;1.00
6355;DHT22;3210;48.708;9.030;2022-09-09T11:55:59;18.30;99.90
6355;DHT22;3210;48.708;9.030;2022-09-09T11:58:28;18.40;99.90
6355;DHT22;3210;48.708;9.030;2022-09-09T12:01:00;18.60;1.00
6355;DHT22;3210;48.708;9.030;2022-09-09T12:03:40;18.80;1.00
6355;DHT22;3210;48.708;9.030;2022-09-09T12:06:13;18.70;1.00
6355;DHT22;3210;48.708;9.030;2022-09-09T12:08:43;18.90;1.00
6355;DHT22;3210;48.708;9.030;2022-09-09T12:11:11;18.80;1.00
6355;DHT22;3210;48.708;9.030;2022-09-09T12:13:38;19.10;1.00
6355;DHT22;3210;48.708;9.030;2022-09-09T12:16:33;19.40;99.90
6355;DHT22;3210;48.708;9.030;2022-09-09T12:19:05;19.50;99.90
6355;DHT22;3210;48.708;9.030;2022-09-09T12:21:39;19.70;99.90
6355;DHT22;3210;48.708;9.030;2022-09-09T12:24:09;19.90;99.90
6355;DHT22;3210;48.708;9.030;2022-09-09T12:26:40;20.40;99.90
6355;DHT22;3210;48.708;9.030;2022-09-09T12:29:18;20.60;99.90
6355;DHT22;3210;48.708;9.030;2022-09-09T12:31:58;20.60;99.90
6355;DHT22;3210;48.708;9.030;2022-09-09T12:34:39;20.60;99.90
6355;DHT22;3210;48.708;9.030;2022-09-09T12:37:15;20.50;99.90
6355;DHT22;3210;48.708;9.030;2022-09-09T12:39:47;20.20;99.90
6355;DHT22;3210;48.708;9.030;2022-09-09T12:42:23;20.20;99.90
6355;DHT22;3210;48.708;9.030;2022-09-09T12:45:00;20.30;99.90
6355;DHT22;3210;48.708;9.030;2022-09-09T12:47:37;20.30;99.90
6355;DHT22;3210;48.708;9.030;2022-09-09T12:50:15;20.10;99.90
6355;DHT22;3210;48.708;9.030;2022-09-09T12:52:43;20.00;99.90
6355;DHT22;3210;48.708;9.030;2022-09-09T12:55:17;20.10;99.90
6355;DHT22;3210;48.708;9.030;2022-09-09T12:57:48;20.10;99.90
6355;DHT22;3210;48.708;9.030;2022-09-09T13:00:17;20.10;99.90
6355;DHT22;3210;48.708;9.030;2022-09-09T13:02:52;20.10;99.90
6355;DHT22;3210;48.708;9.030;2022-09-09T13:05:22;20.40;99.90
6355;DHT22;3210;48.708;9.030;2022-09-09T13:07:50;20.60;99.90
6355;DHT22;3210;48.708;9.030;2022-09-09T13:10:24;21.00;99.90
6355;DHT22;3210;48.708;9.030;2022-09-09T13:12:52;21.10;99.90
6355;DHT22;3210;48.708;9.030;2022-09-09T13:15:22;21.30;99.90
6355;DHT22;3210;48.708;9.030;2022-09-09T13:17:54;21.40;58.60
6355;DHT22;3210;48.708;9.030;2022-09-09T13:20:23;21.60;34.40
6355;DHT22;3210;48.708;9.030;2022-09-09T13:22:53;21.50;16.30
6355;DHT22;3210;48.708;9.030;2022-09-09T13:25:24;21.60;27.00
6355;DHT22;3210;48.708;9.030;2022-09-09T13:28:20;21.70;10.90
6355;DHT22;3210;48.708;9.030;2022-09-09T13:30:56;21.70;22.10
6355;DHT22;3210;48.708;9.030;2022-09-09T13:33:41;21.50;14.50
6355;DHT22;3210;48.708;9.030;2022-09-09T13:36:11;21.30;26.80
6355;DHT22;3210;48.708;9.030;2022-09-09T13:38:52;21.10;24.20
6355;DHT22;3210;48.708;9.030;2022-09-09T13:41:28;21.10;39.50
6355;DHT22;3210;48.708;9.030;2022-09-09T13:44:18;21.20;9.10
6355;DHT22;3210;48.708;9.030;2022-09-09T13:47:00;21.20;11.50
6355;DHT22;3210;48.708;9.030;2022-09-09T13:49:30;21.40;17.20
6355;DHT22;3210;48.708;9.030;2022-09-09T13:52:10;21.50;1.30
6355;DHT22;3210;48.708;9.030;2022-09-09T13:54:48;21.60;1.00
6355;DHT22;3210;48.708;9.030;2022-09-09T13:57:21;21.50;1.00
6355;DHT22;3210;48.708;9.030;2022-09-09T13:59:56;21.50;1.30
6355;DHT22;3210;48.708;9.030;2022-09-09T14:02:29;21.60;1.00
6355;DHT22;3210;48.708;9.030;2022-09-09T14:04:58;21.70;1.00
6355;DHT22;3210;48.708;9.030;2022-09-09T14:07:27;21.70;1.00
6355;DHT22;3210;48.708;9.030;2022-09-09T14:09:54;21.70;1.00
6355;DHT22;3210;48.708;9.030;2022-09-09T14:12:32;21.70;1.00
6355;DHT22;3210;48.708;9.030;2022-09-09T14:17:51;21.70;1.00
6355;DHT22;3210;48.708;9.030;2022-09-09T14:20:20;21.80;1.00
6355;DHT22;3210;48.708;9.030;2022-09-09T14:22:47;21.80;1.00
6355;DHT22;3210;48.708;9.030;2022-09-09T14:25:15;21.80;1.00
6355;DHT22;3210;48.708;9.030;2022-09-09T14:27:42;21.60;1.00
6355;DHT22;3210;48.708;9.030;2022-09-09T14:30:12;21.50;1.00
6355;DHT22;3210;48.708;9.030;2022-09-09T14:32:44;21.50;1.00
6355;DHT22;3210;48.708;9.030;2022-09-09T14:35:11;21.30;1.00
6355;DHT22;3210;48.708;9.030;2022-09-09T14:37:41;21.20;1.00
6355;DHT22;3210;48.708;9.030;2022-09-09T14:40:09;21.10;1.00
6355;DHT22;3210;48.708;9.030;2022-09-09T14:42:39;21.10;1.00
6355;DHT22;3210;48.708;9.030;2022-09-09T14:45:11;21.20;1.00
6355;DHT22;3210;48.708;9.030;2022-09-09T14:47:38;21.20;1.00
6355;DHT22;3210;48.708;9.030;2022-09-09T14:50:05;21.30;1.00
6355;DHT22;3210;48.708;9.030;2022-09-09T14:52:33;21.40;1.00
6355;DHT22;3210;48.708;9.030;2022-09-09T14:55:16;21.40;1.00
6355;DHT22;3210;48.708;9.030;2022-09-09T14:57:46;21.50;1.00
6355;DHT22;3210;48.708;9.030;2022-09-09T15:00:13;21.60;1.00
6355;DHT22;3210;48.708;9.030;2022-09-09T15:02:41;21.40;1.00
6355;DHT22;3210;48.708;9.030;2022-09-09T15:05:09;21.40;1.00
6355;DHT22;3210;48.708;9.030;2022-09-09T15:07:36;21.20;1.00
6355;DHT22;3210;48.708;9.030;2022-09-09T15:10:06;21.20;1.00
6355;DHT22;3210;48.708;9.030;2022-09-09T15:12:35;21.10;1.00
6355;DHT22;3210;48.708;9.030;2022-09-09T15:15:15;20.90;1.00
6355;DHT22;3210;48.708;9.030;2022-09-09T15:17:47;20.90;1.00
6355;DHT22;3210;48.708;9.030;2022-09-09T15:20:15;21.00;1.00
6355;DHT22;3210;48.708;9.030;2022-09-09T15:22:42;21.30;1.00
6355;DHT22;3210;48.708;9.030;2022-09-09T15:25:10;21.40;1.00
6355;DHT22;3210;48.708;9.030;2022-09-09T15:27:43;21.40;1.00
6355;DHT22;3210;48.708;9.030;2022-09-09T15:30:12;21.50;1.00
6355;DHT22;3210;48.708;9.030;2022-09-09T15:32:39;21.50;1.00
6355;DHT22;3210;48.708;9.030;2022-09-09T15:35:06;21.60;1.00
6355;DHT22;3210;48.708;9.030;2022-09-09T15:37:47;21.40;1.00
6355;DHT22;3210;48.708;9.030;2022-09-09T15:40:14;21.10;1.00
6355;DHT22;3210;48.708;9.030;2022-09-09T15:42:43;20.90;1.00
6355;DHT22;3210;48.708;9.030;2022-09-09T15:45:34;20.80;1.00
6355;DHT22;3210;48.708;9.030;2022-09-09T15:48:16;20.50;1.00
6355;DHT22;3210;48.708;9.030;2022-09-09T15:51:20;20.30;1.00
6355;DHT22;3210;48.708;9.030;2022-09-09T15:54:15;20.20;1.00
6355;DHT22;3210;48.708;9.030;2022-09-09T15:56:43;20.10;1.00
6355;DHT22;3210;48.708;9.030;2022-09-09T15:59:12;20.00;1.00
6355;DHT22;3210;48.708;9.030;2022-09-09T16:01:40;19.90;1.00
6355;DHT22;3210;48.708;9.030;2022-09-09T16:04:08;19.90;1.00
6355;DHT22;3210;48.708;9.030;2022-09-09T16:06:35;19.90;1.00
6355;DHT22;3210;48.708;9.030;2022-09-09T16:09:04;19.70;1.00
6355;DHT22;3210;48.708;9.030;2022-09-09T16:11:33;19.80;1.00
6355;DHT22;3210;48.708;9.030;2022-09-09T16:14:01;19.80;11.60
6355;DHT22;3210;48.708;9.030;2022-09-09T16:16:30;20.00;8.40
6355;DHT22;3210;48.708;9.030;2022-09-09T16:19:03;19.90;8.00
6355;DHT22;3210;48.708;9.030;2022-09-09T16:21:33;19.90;24.20
6355;DHT22;3210;48.708;9.030;2022-09-09T16:24:05;20.00;25.00
6355;DHT22;3210;48.708;9.030;2022-09-09T16:26:34;19.90;22.20
6355;DHT22;3210;48.708;9.030;2022-09-09T16:29:01;19.80;40.70
6355;DHT22;3210;48.708;9.030;2022-09-09T16:31:30;19.70;99.90
6355;DHT22;3210;48.708;9.030;2022-09-09T16:33:58;19.20;99.90
6355;DHT22;3210;48.708;9.030;2022-09-09T16:36:27;19.00;99.90
6355;DHT22;3210;48.708;9.030;2022-09-09T16:38:57;19.00;99.90
6355;DHT22;3210;48.708;9.030;2022-09-09T16:41:25;18.90;99.90
6355;DHT22;3210;48.708;9.030;2022-09-09T16:43:55;18.80;99.90
6355;DHT22;3210;48.708;9.030;2022-09-09T16:46:26;18.70;99.90
6355;DHT22;3210;48.708;9.030;2022-09-09T16:48:56;18.60;99.90
6355;DHT22;3210;48.708;9.030;2022-09-09T16:51:25;18.60;99.90
6355;DHT22;3210;48.708;9.030;2022-09-09T16:53:55;18.60;99.90
6355;DHT22;3210;48.708;9.030;2022-09-09T16:56:24;18.60;99.90
6355;DHT22;3210;48.708;9.030;2022-09-09T16:58:53;18.60;99.90
6355;DHT22;3210;48.708;9.030;2022-09-09T17:01:23;18.50;99.90
6355;DHT22;3210;48.708;9.030;2022-09-09T17:03:53;18.50;99.90
6355;DHT22;3210;48.708;9.030;2022-09-09T17:06:23;18.30;99.90
6355;DHT22;3210;48.708;9.030;2022-09-09T17:08:54;18.20;99.90
6355;DHT22;3210;48.708;9.030;2022-09-09T17:11:21;18.00;99.90
6355;DHT22;3210;48.708;9.030;2022-09-09T17:13:49;17.90;1.00
6355;DHT22;3210;48.708;9.030;2022-09-09T17:16:18;17.90;1.00
6355;DHT22;3210;48.708;9.030;2022-09-09T17:18:46;17.90;1.00
6355;DHT22;3210;48.708;9.030;2022-09-09T17:21:15;17.80;1.00
6355;DHT22;3210;48.708;9.030;2022-09-09T17:23:45;17.50;1.00
6355;DHT22;3210;48.708;9.030;2022-09-09T17:26:14;17.60;1.00
6355;DHT22;3210;48.708;9.030;2022-09-09T17:28:42;17.60;1.00
6355;DHT22;3210;48.708;9.030;2022-09-09T17:31:12;17.50;10.30
6355;DHT22;3210;48.708;9.030;2022-09-09T17:33:41;17.50;1.00
6355;DHT22;3210;48.708;9.030;2022-09-09T17:36:11;17.50;1.00
6355;DHT22;3210;48.708;9.030;2022-09-09T17:38:40;17.50;6.20
6355;DHT22;3210;48.708;9.030;2022-09-09T17:41:10;17.30;99.90
6355;DHT22;3210;48.708;9.030;2022-09-09T17:43:38;17.20;99.90
6355;DHT22;3210;48.708;9.030;2022-09-09T17:46:06;17.10;99.90
6355;DHT22;3210;48.708;9.030;2022-09-09T17:48:36;17.00;99.90
6355;DHT22;3210;48.708;9.030;2022-09-09T17:51:04;17.00;99.90
6355;DHT22;3210;48.708;9.030;2022-09-09T17:53:36;16.90;99.90
6355;DHT22;3210;48.708;9.030;2022-09-09T17:56:10;17.00;99.90
6355;DHT22;3210;48.708;9.030;2022-09-09T17:58:37;16.90;1.00
6355;DHT22;3210;48.708;9.030;2022-09-09T18:01:06;16.90;1.00
6355;DHT22;3210;48.708;9.030;2022-09-09T18:03:35;16.90;1.00
6355;DHT22;3210;48.708;9.030;2022-09-09T18:06:03;16.90;1.00
6355;DHT22;3210;48.708;9.030;2022-09-09T18:08:31;16.80;1.00
6355;DHT22;3210;48.708;9.030;2022-09-09T18:10:58;16.90;1.00
6355;DHT22;3210;48.708;9.030;2022-09-09T18:13:27;16.90;99.90
6355;DHT22;3210;48.708;9.030;2022-09-09T18:15:54;16.90;1.00
6355;DHT22;3210;48.708;9.030;2022-09-09T18:18:23;16.90;1.00
6355;DHT22;3210;48.708;9.030;2022-09-09T18:20:57;16.80;1.00
6355;DHT22;3210;48.708;9.030;2022-09-09T18:23:24;17.00;99.90
6355;DHT22;3210;48.708;9.030;2022-09-09T18:25:51;17.10;99.90
6355;DHT22;3210;48.708;9.030;2022-09-09T18:28:18;17.00;99.90
6355;DHT22;3210;48.708;9.030;2022-09-09T18:30:47;17.00;99.90
6355;DHT22;3210;48.708;9.030;2022-09-09T18:33:14;17.00;99.90
6355;DHT22;3210;48.708;9.030;2022-09-09T18:35:41;17.00;1.00
6355;DHT22;3210;48.708;9.030;2022-09-09T18:38:10;17.00;1.00
6355;DHT22;3210;48.708;9.030;2022-09-09T18:40:42;16.90;99.90
6355;DHT22;3210;48.708;9.030;2022-09-09T18:43:08;16.90;99.90
6355;DHT22;3210;48.708;9.030;2022-09-09T18:45:37;16.90;99.90
6355;DHT22;3210;48.708;9.030;2022-09-09T18:48:05;16.90;99.90
6355;DHT22;3210;48.708;9.030;2022-09-09T18:50:33;16.90;99.90
6355;DHT22;3210;48.708;9.030;2022-09-09T18:53:00;16.90;99.90
6355;DHT22;3210;48.708;9.030;2022-09-09T18:55:27;16.90;99.90
6355;DHT22;3210;48.708;9.030;2022-09-09T18:57:54;16.80;99.90
6355;DHT22;3210;48.708;9.030;2022-09-09T19:00:23;16.80;99.90
6355;DHT22;3210;48.708;9.030;2022-09-09T19:02:50;16.90;4.70
6355;DHT22;3210;48.708;9.030;2022-09-09T19:05:19;16.90;1.00
6355;DHT22;3210;48.708;9.030;2022-09-09T19:07:48;16.80;1.00
6355;DHT22;3210;48.708;9.030;2022-09-09T19:10:15;16.90;1.00
6355;DHT22;3210;48.708;9.030;2022-09-09T19:12:42;16.80;1.00
6355;DHT22;3210;48.708;9.030;2022-09-09T19:15:12;16.90;1.00
6355;DHT22;3210;48.708;9.030;2022-09-09T19:17:42;16.70;1.00
6355;DHT22;3210;48.708;9.030;2022-09-09T19:20:12;16.70;1.00
6355;DHT22;3210;48.708;9.030;2022-09-09T19:22:42;16.70;1.00
6355;DHT22;3210;48.708;9.030;2022-09-09T19:25:09;16.50;80.10
6355;DHT22;3210;48.708;9.030;2022-09-09T19:27:35;16.50;99.90
6355;DHT22;3210;48.708;9.030;2022-09-09T19:30:03;16.40;99.90
6355;DHT22;3210;48.708;9.030;2022-09-09T19:32:32;16.30;99.90
6355;DHT22;3210;48.708;9.030;2022-09-09T19:35:02;16.20;99.90
6355;DHT22;3210;48.708;9.030;2022-09-09T19:37:30;16.30;99.90
6355;DHT22;3210;48.708;9.030;2022-09-09T19:39:59;16.30;99.90
6355;DHT22;3210;48.708;9.030;2022-09-09T19:42:25;16.30;99.90
6355;DHT22;3210;48.708;9.030;2022-09-09T19:44:54;16.30;99.90
6355;DHT22;3210;48.708;9.030;2022-09-09T19:47:24;16.20;1.00
6355;DHT22;3210;48.708;9.030;2022-09-09T19:49:50;16.10;1.00
6355;DHT22;3210;48.708;9.030;2022-09-09T19:52:19;16.10;1.00
6355;DHT22;3210;48.708;9.030;2022-09-09T19:54:46;16.10;99.90
6355;DHT22;3210;48.708;9.030;2022-09-09T19:57:15;16.20;99.90
6355;DHT22;3210;48.708;9.030;2022-09-09T19:59:44;16.20;99.90
6355;DHT22;3210;48.708;9.030;2022-09-09T20:02:19;16.20;99.90
6355;DHT22;3210;48.708;9.030;2022-09-09T20:04:46;16.10;99.90
6355;DHT22;3210;48.708;9.030;2022-09-09T20:07:13;16.00;1.00
6355;DHT22;3210;48.708;9.030;2022-09-09T20:09:40;15.90;1.00
6355;DHT22;3210;48.708;9.030;2022-09-09T20:12:07;15.80;21.20
6355;DHT22;3210;48.708;9.030;2022-09-09T20:14:35;15.80;1.00
6355;DHT22;3210;48.708;9.030;2022-09-09T20:17:02;15.80;81.80
6355;DHT22;3210;48.708;9.030;2022-09-09T20:19:29;15.70;99.90
6355;DHT22;3210;48.708;9.030;2022-09-09T20:21:57;15.70;1.00
6355;DHT22;3210;48.708;9.030;2022-09-09T20:24:23;15.70;1.00
6355;DHT22;3210;48.708;9.030;2022-09-09T20:26:50;15.70;1.00
6355;DHT22;3210;48.708;9.030;2022-09-09T20:29:18;15.60;1.00
6355;DHT22;3210;48.708;9.030;2022-09-09T20:31:47;15.70;1.00
6355;DHT22;3210;48.708;9.030;2022-09-09T20:34:16;15.60;12.50
6355;DHT22;3210;48.708;9.030;2022-09-09T20:36:43;15.50;99.90
6355;DHT22;3210;48.708;9.030;2022-09-09T20:39:11;15.50;99.90
6355;DHT22;3210;48.708;9.030;2022-09-09T20:41:40;15.60;99.90
6355;DHT22;3210;48.708;9.030;2022-09-09T20:44:09;15.50;86.70
6355;DHT22;3210;48.708;9.030;2022-09-09T20:46:40;15.50;99.90
6355;DHT22;3210;48.708;9.030;2022-09-09T20:49:10;15.40;99.90
6355;DHT22;3210;48.708;9.030;2022-09-09T20:51:37;15.40;99.90
6355;DHT22;3210;48.708;9.030;2022-09-09T20:54:06;15.30;1.00
6355;DHT22;3210;48.708;9.030;2022-09-09T20:56:34;15.30;99.90
6355;DHT22;3210;48.708;9.030;2022-09-09T20:59:02;15.30;99.90
6355;DHT22;3210;48.708;9.030;2022-09-09T21:01:29;15.30;99.90
6355;DHT22;3210;48.708;9.030;2022-09-09T21:03:56;15.30;99.90
6355;DHT22;3210;48.708;9.030;2022-09-09T21:06:26;15.30;99.90
6355;DHT22;3210;48.708;9.030;2022-09-09T21:08:52;15.30;99.90
6355;DHT22;3210;48.708;9.030;2022-09-09T21:11:19;15.30;99.90
6355;DHT22;3210;48.708;9.030;2022-09-09T21:13:47;15.50;1.00
6355;DHT22;3210;48.708;9.030;2022-09-09T21:16:16;15.40;99.90
6355;DHT22;3210;48.708;9.030;2022-09-09T21:18:44;15.20;99.90
6355;DHT22;3210;48.708;9.030;2022-09-09T21:21:11;15.20;99.90
6355;DHT22;3210;48.708;9.030;2022-09-09T21:23:40;15.20;99.90
6355;DHT22;3210;48.708;9.030;2022-09-09T21:26:08;15.20;1.00
6355;DHT22;3210;48.708;9.030;2022-09-09T21:28:35;15.10;1.00
6355;DHT22;3210;48.708;9.030;2022-09-09T21:31:03;15.20;1.00
6355;DHT22;3210;48.708;9.030;2022-09-09T21:33:31;15.10;1.00
6355;DHT22;3210;48.708;9.030;2022-09-09T21:36:02;15.00;99.90
6355;DHT22;3210;48.708;9.030;2022-09-09T21:38:29;14.90;1.00
6355;DHT22;3210;48.708;9.030;2022-09-09T21:41:01;14.90;99.90
6355;DHT22;3210;48.708;9.030;2022-09-09T21:43:29;14.90;99.90
6355;DHT22;3210;48.708;9.030;2022-09-09T21:45:55;14.80;99.90
6355;DHT22;3210;48.708;9.030;2022-09-09T21:48:22;14.80;1.00
6355;DHT22;3210;48.708;9.030;2022-09-09T21:50:51;14.60;99.90
6355;DHT22;3210;48.708;9.030;2022-09-09T21:53:18;14.50;1.00
6355;DHT22;3210;48.708;9.030;2022-09-09T21:55:46;14.40;99.90
6355;DHT22;3210;48.708;9.030;2022-09-09T21:58:16;14.30;1.00
6355;DHT22;3210;48.708;9.030;2022-09-09T22:00:45;14.10;1.00
6355;DHT22;3210;48.708;9.030;2022-09-09T22:03:13;14.10;1.00
6355;DHT22;3210;48.708;9.030;2022-09-09T22:05:41;14.10;1.00
6355;DHT22;3210;48.708;9.030;2022-09-09T22:08:09;14.00;92.10
6355;DHT22;3210;48.708;9.030;2022-09-09T22:10:37;14.00;59.60
6355;DHT22;3210;48.708;9.030;2022-09-09T22:13:04;14.00;98.60
6355;DHT22;3210;48.708;9.030;2022-09-09T22:15:33;14.00;74.10
6355;DHT22;3210;48.708;9.030;2022-09-09T22:18:01;13.90;99.90
6355;DHT22;3210;48.708;9.030;2022-09-09T22:20:29;13.90;99.90
6355;DHT22;3210;48.708;9.030;2022-09-09T22:22:58;13.90;99.90
6355;DHT22;3210;48.708;9.030;2022-09-09T22:25:25;13.80;99.90
6355;DHT22;3210;48.708;9.030;2022-09-09T22:27:52;13.90;99.90
6355;DHT22;3210;48.708;9.030;2022-09-09T22:30:19;14.00;99.90
6355;DHT22;3210;48.708;9.030;2022-09-09T22:32:47;14.00;99.90
6355;DHT22;3210;48.708;9.030;2022-09-09T22:35:15;14.00;99.90
6355;DHT22;3210;48.708;9.030;2022-09-09T22:37:42;14.10;62.00
6355;DHT22;3210;48.708;9.030;2022-09-09T22:40:09;14.20;22.00
6355;DHT22;3210;48.708;9.030;2022-09-09T22:42:36;14.40;1.00
6355;DHT22;3210;48.708;9.030;2022-09-09T22:45:04;14.60;99.90
6355;DHT22;3210;48.708;9.030;2022-09-09T22:47:31;14.70;1.00
6355;DHT22;3210;48.708;9.030;2022-09-09T22:49:59;14.80;99.90
6355;DHT22;3210;48.708;9.030;2022-09-09T22:52:27;14.90;99.90
6355;DHT22;3210;48.708;9.030;2022-09-09T22:54:56;14.90;99.90
6355;DHT22;3210;48.708;9.030;2022-09-09T22:57:23;15.00;1.00
6355;DHT22;3210;48.708;9.030;2022-09-09T22:59:50;15.00;1.00
6355;DHT22;3210;48.708;9.030;2022-09-09T23:02:17;14.90;99.90
6355;DHT22;3210;48.708;9.030;2022-09-09T23:04:45;14.90;99.90
6355;DHT22;3210;48.708;9.030;2022-09-09T23:07:28;14.70;99.90
6355;DHT22;3210;48.708;9.030;2022-09-09T23:09:57;14.50;99.90
6355;DHT22;3210;48.708;9.030;2022-09-09T23:12:24;14.50;99.90
6355;DHT22;3210;48.708;9.030;2022-09-09T23:14:52;14.50;99.90
6355;DHT22;3210;48.708;9.030;2022-09-09T23:17:19;14.40;99.90
6355;DHT22;3210;48.708;9.030;2022-09-09T23:19:47;14.40;99.90
6355;DHT22;3210;48.708;9.030;2022-09-09T23:22:21;14.30;99.90
6355;DHT22;3210;48.708;9.030;2022-09-09T23:24:50;14.20;99.90
6355;DHT22;3210;48.708;9.030;2022-09-09T23:27:17;14.30;99.90
6355;DHT22;3210;48.708;9.030;2022-09-09T23:29:45;14.30;99.90
6355;DHT22;3210;48.708;9.030;2022-09-09T23:32:12;14.30;99.90
6355;DHT22;3210;48.708;9.030;2022-09-09T23:34:40;14.30;99.90
6355;DHT22;3210;48.708;9.030;2022-09-09T23:37:06;14.30;99.90
6355;DHT22;3210;48.708;9.030;2022-09-09T23:39:35;14.30;99.90
6355;DHT22;3210;48.708;9.030;2022-09-09T23:42:04;14.30;99.90
6355;DHT22;3210;48.708;9.030;2022-09-09T23:44:32;14.20;99.90
6355;DHT22;3210;48.708;9.030;2022-09-09T23:46:59;14.20;99.90
6355;DHT22;3210;48.708;9.030;2022-09-09T23:49:26;14.20;99.90
6355;DHT22;3210;48.708;9.030;2022-09-09T23:51:53;14.30;99.90
6355;DHT22;3210;48.708;9.030;2022-09-09T23:54:19;14.30;99.90
6355;DHT22;3210;48.708;9.030;2022-09-09T23:56:46;14.20;99.90
6355;DHT22;3210;48.708;9.030;2022-09-09T23:59:15;14.30;99.90
